createdAt,value
2018-10-18T00:00:54.569Z,48.77
2018-10-18T00:03:25.342Z,41.77
2018-10-18T00:05:56.032Z,45.63
2018-10-18T00:08:26.680Z,43.20
2018-10-18T00:10:57.307Z,44.63
2018-10-18T00:13:28.005Z,45.27
2018-10-18T00:15:58.646Z,44.53
2018-10-18T00:18:29.337Z,38.97
2018-10-18T00:21:00.068Z,39.57
2018-10-18T00:23:30.791Z,39.47
2018-10-18T00:26:01.495Z,39.70
2018-10-18T00:28:33.294Z,40.97
2018-10-18T00:31:03.986Z,41.73
2018-10-18T00:33:34.723Z,37.33
2018-10-18T00:36:05.915Z,38.23
2018-10-18T00:38:36.620Z,41.00
2018-10-18T00:41:07.418Z,41.90
2018-10-18T00:43:38.107Z,41.13
2018-10-18T00:46:08.743Z,38.33
2018-10-18T00:48:39.435Z,38.30
2018-10-18T00:51:10.108Z,37.30
2018-10-18T00:53:43.612Z,37.40
2018-10-18T00:56:14.463Z,36.90
2018-10-18T00:58:45.042Z,40.80
2018-10-18T01:01:15.712Z,39.40
2018-10-18T01:03:46.348Z,38.73
2018-10-18T01:06:17.415Z,42.83
2018-10-18T01:08:48.326Z,41.67
2018-10-18T01:11:19.655Z,38.90
2018-10-18T01:13:50.324Z,43.07
2018-10-18T01:16:20.979Z,43.70
2018-10-18T01:18:51.605Z,41.47
2018-10-18T01:21:22.303Z,42.83
2018-10-18T01:23:53.037Z,44.83
2018-10-18T01:26:23.634Z,42.43
2018-10-18T01:28:54.330Z,43.00
2018-10-18T01:31:24.967Z,41.57
2018-10-18T01:33:55.633Z,45.20
2018-10-18T01:36:26.248Z,44.97
2018-10-18T01:38:56.881Z,40.63
2018-10-18T01:41:27.539Z,45.00
2018-10-18T01:43:58.191Z,44.97
2018-10-18T01:46:28.968Z,43.13
2018-10-18T01:48:59.662Z,45.40
2018-10-18T01:51:30.291Z,43.80
2018-10-18T01:54:01.104Z,42.87
2018-10-18T01:56:31.719Z,46.53
2018-10-18T01:59:02.400Z,43.00
2018-10-18T02:01:33.096Z,46.20
2018-10-18T02:04:03.844Z,49.33
2018-10-18T02:06:34.485Z,46.97
2018-10-18T02:09:08.139Z,45.43
2018-10-18T02:11:38.899Z,45.20
2018-10-18T02:14:09.647Z,44.17
2018-10-18T02:16:40.317Z,44.70
2018-10-18T02:19:10.998Z,42.53
2018-10-18T02:21:41.652Z,45.23
2018-10-18T02:24:12.619Z,44.27
2018-10-18T02:26:43.117Z,43.17
2018-10-18T02:29:13.793Z,41.10
2018-10-18T02:31:44.442Z,42.63
2018-10-18T02:34:15.113Z,45.97
2018-10-18T02:36:45.803Z,50.30
2018-10-18T02:39:16.448Z,48.00
2018-10-18T02:41:47.108Z,45.13
2018-10-18T02:44:17.749Z,49.93
2018-10-18T02:46:48.404Z,47.00
2018-10-18T02:49:19.128Z,45.23
2018-10-18T02:51:49.736Z,44.97
2018-10-18T02:54:20.563Z,43.57
2018-10-18T02:56:51.110Z,48.00
2018-10-18T02:59:21.851Z,45.87
2018-10-18T03:01:52.560Z,47.07
2018-10-18T03:04:23.205Z,43.83
2018-10-18T03:06:53.876Z,40.50
2018-10-18T03:09:24.607Z,42.00
2018-10-18T03:11:55.361Z,44.20
2018-10-18T03:14:25.963Z,46.50
2018-10-18T03:16:56.649Z,41.13
2018-10-18T03:19:27.412Z,42.80
2018-10-18T03:21:58.069Z,41.03
2018-10-18T03:24:28.720Z,41.80
2018-10-18T03:26:59.411Z,40.70
2018-10-18T03:29:30.027Z,44.93
2018-10-18T03:32:00.728Z,42.00
2018-10-18T03:34:31.407Z,40.43
2018-10-18T03:37:02.077Z,41.60
2018-10-18T03:39:32.711Z,42.40
2018-10-18T03:42:03.472Z,39.73
2018-10-18T03:44:34.065Z,40.40
2018-10-18T03:47:04.776Z,41.27
2018-10-18T03:49:35.460Z,38.87
2018-10-18T03:52:07.573Z,40.27
2018-10-18T03:54:38.259Z,39.90
2018-10-18T03:57:08.891Z,43.77
2018-10-18T03:59:39.668Z,38.47
2018-10-18T04:02:10.304Z,37.43
2018-10-18T04:04:40.977Z,41.37
2018-10-18T04:07:11.674Z,37.13
2018-10-18T04:09:42.312Z,34.03
2018-10-18T04:12:13.049Z,37.57
2018-10-18T04:14:43.677Z,38.97
2018-10-18T04:17:14.332Z,39.93
2018-10-18T04:19:45.034Z,37.53
2018-10-18T04:22:15.699Z,36.97
2018-10-18T04:24:46.508Z,36.77
2018-10-18T04:27:17.220Z,36.93
2018-10-18T04:29:48.257Z,37.83
2018-10-18T04:32:19.225Z,36.33
2018-10-18T04:34:50.101Z,37.30
2018-10-18T04:37:25.735Z,38.07
2018-10-18T04:39:56.386Z,37.17
2018-10-18T04:42:27.034Z,34.13
2018-10-18T04:44:57.695Z,38.30
2018-10-18T04:47:28.627Z,38.47
2018-10-18T04:49:59.151Z,37.80
2018-10-18T04:52:29.874Z,39.43
2018-10-18T04:55:00.531Z,38.03
2018-10-18T04:57:31.163Z,39.33
2018-10-18T05:00:01.817Z,39.33
2018-10-18T05:02:32.547Z,38.37
2018-10-18T05:05:20.201Z,41.50
2018-10-18T05:07:50.954Z,35.90
2018-10-18T05:10:21.604Z,34.03
2018-10-18T05:12:52.270Z,38.03
2018-10-18T05:15:23.033Z,37.83
2018-10-18T05:17:53.704Z,36.10
2018-10-18T05:20:24.391Z,35.90
2018-10-18T05:22:55.160Z,35.13
2018-10-18T05:25:25.877Z,37.17
2018-10-18T05:27:56.468Z,35.53
2018-10-18T05:30:27.164Z,36.80
2018-10-18T05:32:57.829Z,33.37
2018-10-18T05:35:28.535Z,38.80
2018-10-18T05:37:59.228Z,39.43
2018-10-18T05:40:29.853Z,42.27
2018-10-18T05:43:00.615Z,39.70
2018-10-18T05:45:31.244Z,36.10
2018-10-18T05:48:01.922Z,36.40
2018-10-18T05:50:32.652Z,40.40
2018-10-18T05:53:03.411Z,38.83
2018-10-18T05:55:34.094Z,37.50
2018-10-18T05:58:04.787Z,40.00
2018-10-18T06:00:35.463Z,36.80
2018-10-18T06:03:06.396Z,45.13
2018-10-18T06:05:37.125Z,37.87
2018-10-18T06:08:07.817Z,36.37
2018-10-18T06:10:55.231Z,35.90
2018-10-18T06:13:25.892Z,35.23
2018-10-18T06:15:56.634Z,39.03
2018-10-18T06:18:27.330Z,33.57
2018-10-18T06:20:57.998Z,33.27
2018-10-18T06:23:28.742Z,32.00
2018-10-18T06:25:59.391Z,29.83
2018-10-18T06:28:30.116Z,31.63
2018-10-18T06:31:00.791Z,29.33
2018-10-18T06:33:31.440Z,31.83
2018-10-18T06:36:02.044Z,29.27
2018-10-18T06:38:32.763Z,31.80
2018-10-18T06:41:03.516Z,27.97
2018-10-18T06:43:40.348Z,29.83
2018-10-18T06:46:12.748Z,30.67
2018-10-18T06:48:43.879Z,29.77
2018-10-18T06:51:14.531Z,27.37
2018-10-18T06:53:45.215Z,26.00
2018-10-18T06:56:15.829Z,29.23
2018-10-18T06:58:46.543Z,27.73
2018-10-18T07:01:17.252Z,27.47
2018-10-18T07:03:47.908Z,29.80
2018-10-18T07:06:18.937Z,25.93
2018-10-18T07:08:49.568Z,26.33
2018-10-18T07:11:20.321Z,27.97
2018-10-18T07:13:51.595Z,27.77
2018-10-18T07:16:23.188Z,27.50
2018-10-18T07:18:53.868Z,26.20
2018-10-18T07:21:24.456Z,25.27
2018-10-18T07:23:55.103Z,25.77
2018-10-18T07:26:26.062Z,27.13
2018-10-18T07:28:56.824Z,25.23
2018-10-18T07:31:27.535Z,25.07
2018-10-18T07:33:58.406Z,30.60
2018-10-18T07:36:29.984Z,28.53
2018-10-18T07:39:00.810Z,28.40
2018-10-18T07:41:31.438Z,30.17
2018-10-18T07:44:02.270Z,36.93
2018-10-18T07:46:32.891Z,34.63
2018-10-18T07:49:03.552Z,33.03
2018-10-18T07:51:34.224Z,33.27
2018-10-18T07:54:05.289Z,35.50
2018-10-18T07:56:35.920Z,28.67
2018-10-18T07:59:06.915Z,22.97
2018-10-18T08:01:38.494Z,24.87
2018-10-18T08:04:09.256Z,23.93
2018-10-18T08:06:40.258Z,20.30
2018-10-18T08:09:13.555Z,19.80
2018-10-18T08:11:44.398Z,16.77
2018-10-18T08:14:15.028Z,19.57
2018-10-18T08:16:45.705Z,16.67
2018-10-18T08:19:16.453Z,16.13
2018-10-18T08:21:46.982Z,17.30
2018-10-18T08:24:17.625Z,17.40
2018-10-18T08:26:48.301Z,17.57
2018-10-18T08:29:18.983Z,16.90
2018-10-18T08:31:49.719Z,16.90
2018-10-18T08:34:20.318Z,16.33
2018-10-18T08:36:50.951Z,17.17
2018-10-18T08:39:21.606Z,16.37
2018-10-18T08:41:52.256Z,13.97
2018-10-18T08:44:22.949Z,14.30
2018-10-18T08:46:53.587Z,14.07
2018-10-18T08:49:24.261Z,15.37
2018-10-18T08:51:54.849Z,15.53
2018-10-18T08:54:25.503Z,12.87
2018-10-18T08:56:56.172Z,13.10
2018-10-18T08:59:26.883Z,12.90
2018-10-18T09:01:57.464Z,12.20
2018-10-18T09:04:28.175Z,13.90
2018-10-18T09:06:58.845Z,13.10
2018-10-18T09:09:29.498Z,13.27
2018-10-18T09:12:00.095Z,12.93
2018-10-18T09:14:30.764Z,11.80
2018-10-18T09:17:01.506Z,13.43
2018-10-18T09:19:32.113Z,12.87
2018-10-18T09:22:02.768Z,11.30
2018-10-18T09:24:33.403Z,12.20
2018-10-18T09:27:04.087Z,10.67
2018-10-18T09:29:34.779Z,9.13
2018-10-18T09:32:05.528Z,11.40
2018-10-18T09:34:36.206Z,9.10
2018-10-18T09:37:07.314Z,7.53
2018-10-18T09:39:38.003Z,7.50
2018-10-18T09:42:08.648Z,6.60
2018-10-18T09:44:39.251Z,7.30
2018-10-18T09:47:09.910Z,7.20
2018-10-18T09:49:40.617Z,8.33
2018-10-18T09:52:11.246Z,6.27
2018-10-18T09:54:41.822Z,7.87
2018-10-18T09:57:12.451Z,6.70
2018-10-18T09:59:43.090Z,6.73
2018-10-18T10:02:19.019Z,6.33
2018-10-18T10:04:49.687Z,7.30
2018-10-18T10:07:20.345Z,7.23
2018-10-18T10:09:51.042Z,9.33
2018-10-18T10:12:21.657Z,7.10
2018-10-18T10:14:52.284Z,5.33
2018-10-18T10:17:22.979Z,6.73
2018-10-18T10:19:53.682Z,9.20
2018-10-18T10:22:24.300Z,6.80
2018-10-18T10:24:54.990Z,7.10
2018-10-18T10:27:25.604Z,7.07
2018-10-18T10:29:56.295Z,6.67
2018-10-18T10:32:26.936Z,6.97
2018-10-18T10:34:57.670Z,6.53
2018-10-18T10:37:28.304Z,6.03
2018-10-18T10:39:58.986Z,5.40
2018-10-18T10:42:29.643Z,7.47
2018-10-18T10:45:00.286Z,6.37
2018-10-18T10:47:30.968Z,5.50
2018-10-18T10:50:01.560Z,6.13
2018-10-18T10:52:32.240Z,5.13
2018-10-18T10:55:02.906Z,4.13
2018-10-18T10:57:33.604Z,5.13
2018-10-18T11:00:04.467Z,4.87
2018-10-18T11:02:35.073Z,4.33
2018-10-18T11:05:06.449Z,4.47
2018-10-18T11:07:37.119Z,5.20
2018-10-18T11:10:07.892Z,3.90
2018-10-18T11:12:38.552Z,4.23
2018-10-18T11:15:09.339Z,4.03
2018-10-18T11:17:39.927Z,3.57
2018-10-18T11:20:10.599Z,4.10
2018-10-18T11:22:41.191Z,4.10
2018-10-18T11:25:11.848Z,3.20
2018-10-18T11:27:42.469Z,2.80
2018-10-18T11:30:13.155Z,3.77
2018-10-18T11:32:43.749Z,3.17
2018-10-18T11:35:14.367Z,3.20
2018-10-18T11:37:44.966Z,4.20
2018-10-18T11:40:22.139Z,3.67
2018-10-18T11:42:52.729Z,3.33
2018-10-18T11:45:23.464Z,4.33
2018-10-18T11:47:54.169Z,2.23
2018-10-18T11:50:24.790Z,2.00
2018-10-18T11:52:55.576Z,2.20
2018-10-18T11:55:26.292Z,2.37
2018-10-18T11:57:56.966Z,2.60
2018-10-18T12:00:27.652Z,3.03
2018-10-18T12:02:58.328Z,2.53
2018-10-18T12:05:29.032Z,2.20
2018-10-18T12:07:59.682Z,2.40
2018-10-18T12:10:30.308Z,2.23
2018-10-18T12:13:01.115Z,2.40
2018-10-18T12:15:31.805Z,3.57
2018-10-18T12:18:02.414Z,2.47
2018-10-18T12:20:33.148Z,2.93
2018-10-18T12:23:03.880Z,2.40
2018-10-18T12:25:34.534Z,4.37
2018-10-18T12:28:05.160Z,2.10
2018-10-18T12:30:35.824Z,2.97
2018-10-18T12:33:06.501Z,3.50
2018-10-18T12:35:37.133Z,2.37
2018-10-18T12:38:07.882Z,2.60
2018-10-18T12:40:38.465Z,2.77
2018-10-18T12:43:09.128Z,3.07
2018-10-18T12:45:39.790Z,3.53
2018-10-18T12:48:10.529Z,3.77
2018-10-18T12:50:41.098Z,3.73
2018-10-18T12:53:11.748Z,9.00
2018-10-18T12:55:42.453Z,3.67
2018-10-18T12:58:13.222Z,6.97
2018-10-18T13:00:43.918Z,3.87
2018-10-18T13:03:14.635Z,4.70
2018-10-18T13:05:45.313Z,2.70
2018-10-18T13:08:16.076Z,3.00
2018-10-18T13:10:46.611Z,2.60
2018-10-18T13:13:17.285Z,3.10
2018-10-18T13:15:47.962Z,3.63
2018-10-18T13:18:18.828Z,3.23
2018-10-18T13:20:49.487Z,3.50
2018-10-18T13:23:20.179Z,3.40
2018-10-18T13:25:50.827Z,5.10
2018-10-18T13:28:21.446Z,4.83
2018-10-18T13:30:52.091Z,3.93
2018-10-18T13:33:22.743Z,5.40
2018-10-18T13:35:53.389Z,3.77
2018-10-18T13:38:24.008Z,3.57
2018-10-18T13:40:54.676Z,3.57
2018-10-18T13:43:25.315Z,3.40
2018-10-18T13:45:55.960Z,3.73
2018-10-18T13:48:26.623Z,2.50
2018-10-18T13:50:57.248Z,4.70
2018-10-18T13:53:27.962Z,2.93
2018-10-18T13:55:58.613Z,3.40
2018-10-18T13:58:32.091Z,2.80
2018-10-18T14:01:02.810Z,4.10
2018-10-18T14:03:33.522Z,1.63
2018-10-18T14:06:04.189Z,1.67
2018-10-18T14:08:34.909Z,2.10
2018-10-18T14:11:05.707Z,1.60
2018-10-18T14:13:36.360Z,4.23
2018-10-18T14:16:07.389Z,2.37
2018-10-18T14:18:38.149Z,3.43
2018-10-18T14:21:09.301Z,1.37
2018-10-18T14:23:40.094Z,4.67
2018-10-18T14:26:10.749Z,3.83
2018-10-18T14:28:41.618Z,2.30
2018-10-18T14:31:12.275Z,3.20
2018-10-18T14:33:43.175Z,4.73
2018-10-18T14:36:13.763Z,3.93
2018-10-18T14:38:44.527Z,2.60
2018-10-18T14:41:15.102Z,3.70
2018-10-18T14:43:45.763Z,5.00
2018-10-18T14:46:16.430Z,3.07
2018-10-18T14:48:47.080Z,4.03
2018-10-18T14:51:17.781Z,3.27
2018-10-18T14:53:48.415Z,3.70
2018-10-18T14:56:19.055Z,3.20
2018-10-18T14:58:49.791Z,3.50
2018-10-18T15:01:20.410Z,3.77
2018-10-18T15:03:51.113Z,4.30
2018-10-18T15:06:21.709Z,3.57
2018-10-18T15:08:52.391Z,3.17
2018-10-18T15:11:23.020Z,2.30
2018-10-18T15:13:53.679Z,2.20
2018-10-18T15:16:24.468Z,5.23
2018-10-18T15:18:55.234Z,3.10
2018-10-18T15:21:26.574Z,4.57
2018-10-18T15:23:57.269Z,2.80
2018-10-18T15:26:27.966Z,3.33
2018-10-18T15:28:58.653Z,1.70
2018-10-18T15:31:29.401Z,1.93
2018-10-18T15:34:00.138Z,1.73
2018-10-18T15:36:30.865Z,3.27
2018-10-18T15:39:01.604Z,1.60
2018-10-18T15:41:32.267Z,1.40
2018-10-18T15:44:02.984Z,2.40
2018-10-18T15:46:33.707Z,1.60
2018-10-18T15:49:04.467Z,1.60
2018-10-18T15:51:35.268Z,1.70
2018-10-18T15:54:07.078Z,2.00
2018-10-18T15:56:37.806Z,4.53
2018-10-18T15:59:08.605Z,3.07
2018-10-18T16:01:39.196Z,2.20
2018-10-18T16:04:09.859Z,2.93
2018-10-18T16:06:40.718Z,5.57
2018-10-18T16:09:13.551Z,3.07
2018-10-18T16:11:44.247Z,2.50
2018-10-18T16:14:15.029Z,2.87
2018-10-18T16:16:45.635Z,2.70
2018-10-18T16:19:16.447Z,3.63
2018-10-18T16:21:47.109Z,2.80
2018-10-18T16:24:18.243Z,3.30
2018-10-18T16:26:50.164Z,3.70
2018-10-18T16:29:20.892Z,4.93
2018-10-18T16:31:51.466Z,4.30
2018-10-18T16:34:22.120Z,5.37
2018-10-18T16:36:53.801Z,5.03
2018-10-18T16:39:24.936Z,6.30
2018-10-18T16:41:55.601Z,4.93
2018-10-18T16:44:27.232Z,5.10
2018-10-18T16:46:58.791Z,5.43
2018-10-18T16:49:29.421Z,4.87
2018-10-18T16:52:00.093Z,4.87
2018-10-18T16:54:30.769Z,4.90
2018-10-18T16:57:01.376Z,6.00
2018-10-18T16:59:32.057Z,5.93
2018-10-18T17:02:02.774Z,6.23
2018-10-18T17:04:33.785Z,7.73
2018-10-18T17:07:04.456Z,6.17
2018-10-18T17:09:35.076Z,5.87
2018-10-18T17:12:06.212Z,6.57
2018-10-18T17:14:36.829Z,8.00
2018-10-18T17:17:07.497Z,6.40
2018-10-18T17:19:38.243Z,6.57
2018-10-18T17:22:09.430Z,7.60
2018-10-18T17:24:40.061Z,9.00
2018-10-18T17:27:10.720Z,8.07
2018-10-18T17:29:41.421Z,8.80
2018-10-18T17:32:12.116Z,7.47
2018-10-18T17:34:43.320Z,9.73
2018-10-18T17:37:13.953Z,9.70
2018-10-18T17:39:45.518Z,8.43
2018-10-18T17:42:16.207Z,8.07
2018-10-18T17:44:47.225Z,10.30
2018-10-18T17:47:17.999Z,7.77
2018-10-18T17:49:48.899Z,8.57
2018-10-18T17:52:19.558Z,7.50
2018-10-18T17:54:50.276Z,8.47
2018-10-18T17:57:21.026Z,8.90
2018-10-18T17:59:52.206Z,9.37
2018-10-18T18:02:23.128Z,8.07
2018-10-18T18:04:53.871Z,7.93
2018-10-18T18:07:24.569Z,8.80
2018-10-18T18:09:55.204Z,5.07
2018-10-18T18:12:25.890Z,6.73
2018-10-18T18:14:57.594Z,9.13
2018-10-18T18:17:28.880Z,6.67
2018-10-18T18:19:59.923Z,10.50
2018-10-18T18:22:32.308Z,8.77
2018-10-18T18:25:02.948Z,9.50
2018-10-18T18:27:35.096Z,7.17
2018-10-18T18:30:09.552Z,7.73
2018-10-18T18:32:41.082Z,9.27
2018-10-18T18:35:11.821Z,10.47
2018-10-18T18:37:43.481Z,9.50
2018-10-18T18:40:14.146Z,10.53
2018-10-18T18:42:44.811Z,9.50
2018-10-18T18:45:21.563Z,7.20
2018-10-18T18:47:52.270Z,7.87
2018-10-18T18:50:22.917Z,10.33
2018-10-18T18:56:27.478Z,8.60
2018-10-18T18:58:58.131Z,10.30
2018-10-18T19:01:28.850Z,10.57
2018-10-18T19:03:59.484Z,11.10
2018-10-18T19:06:30.170Z,9.27
2018-10-18T19:09:00.793Z,9.27
2018-10-18T19:11:31.795Z,10.03
2018-10-18T19:14:02.474Z,9.60
2018-10-18T19:16:33.208Z,8.73
2018-10-18T19:19:04.191Z,8.17
2018-10-18T19:21:34.900Z,9.83
2018-10-18T19:24:05.740Z,11.87
2018-10-18T19:26:36.379Z,12.37
2018-10-18T19:29:07.170Z,9.20
2018-10-18T19:31:37.808Z,8.57
2018-10-18T19:34:08.488Z,10.83
2018-10-18T19:36:39.584Z,8.47
2018-10-18T19:39:10.776Z,9.70
2018-10-18T19:41:41.452Z,11.47
2018-10-18T19:44:12.522Z,10.33
2018-10-18T19:46:43.236Z,8.77
2018-10-18T19:49:14.051Z,9.60
2018-10-18T19:51:44.712Z,11.40
2018-10-18T19:54:15.355Z,10.33
2018-10-18T19:56:46.018Z,10.17
2018-10-18T19:59:16.683Z,8.93
2018-10-18T20:01:47.324Z,9.70
2018-10-18T20:04:18.443Z,8.20
2018-10-18T20:06:49.080Z,11.03
2018-10-18T20:09:19.767Z,13.07
2018-10-18T20:14:26.394Z,10.13
2018-10-18T20:16:57.044Z,12.97
2018-10-18T20:19:27.751Z,11.80
2018-10-18T20:21:58.411Z,9.73
2018-10-18T20:24:29.187Z,13.73
2018-10-18T20:26:59.788Z,12.53
2018-10-18T20:29:30.419Z,11.90
2018-10-18T20:32:01.082Z,16.37
2018-10-18T20:34:31.724Z,13.43
2018-10-18T20:37:02.429Z,12.17
2018-10-18T20:39:33.072Z,11.63
2018-10-18T20:42:03.758Z,13.67
2018-10-18T20:44:34.377Z,10.83
2018-10-18T20:47:05.158Z,12.33
2018-10-18T20:49:35.770Z,17.43
2018-10-18T20:52:06.758Z,12.27
2018-10-18T20:54:37.354Z,13.47
2018-10-18T20:57:08.039Z,11.93
2018-10-18T20:59:38.823Z,12.43
2018-10-18T21:02:09.449Z,16.00
2018-10-18T21:04:40.222Z,13.23
2018-10-18T21:07:10.878Z,13.77
2018-10-18T21:09:41.636Z,12.07
2018-10-18T21:12:12.236Z,13.70
2018-10-18T21:14:42.912Z,12.10
2018-10-18T21:17:13.553Z,11.47
2018-10-18T21:19:44.201Z,13.33
2018-10-18T21:22:14.866Z,12.50
2018-10-18T21:24:45.601Z,10.23
2018-10-18T21:27:16.243Z,14.80
2018-10-18T21:29:46.893Z,14.27
2018-10-18T21:32:17.544Z,12.83
2018-10-18T21:34:48.235Z,12.67
2018-10-18T21:37:18.894Z,12.40
2018-10-18T21:39:49.567Z,14.47
2018-10-18T21:42:20.252Z,13.07
2018-10-18T21:44:51.535Z,15.27
2018-10-18T21:47:22.313Z,11.53
2018-10-18T21:49:53.002Z,12.57
2018-10-18T21:52:23.625Z,13.97
2018-10-18T21:54:54.358Z,11.37
2018-10-18T21:57:25.011Z,11.83
2018-10-18T21:59:55.623Z,15.33
2018-10-18T22:02:26.269Z,11.53
2018-10-18T22:04:56.920Z,12.90
2018-10-18T22:07:27.542Z,13.07
2018-10-18T22:09:58.192Z,13.77
2018-10-18T22:12:28.871Z,12.90
2018-10-18T22:14:59.599Z,11.33
2018-10-18T22:17:30.217Z,13.50
2018-10-18T22:20:00.881Z,11.57
2018-10-18T22:22:31.533Z,12.50
2018-10-18T22:25:02.165Z,13.37
2018-10-18T22:27:32.849Z,12.50
2018-10-18T22:30:03.543Z,13.63
2018-10-18T22:32:34.199Z,11.83
2018-10-18T22:35:04.939Z,14.33
2018-10-18T22:37:35.607Z,11.30
2018-10-18T22:40:07.413Z,11.33
2018-10-18T22:42:38.070Z,12.50
2018-10-18T22:45:09.503Z,13.93
2018-10-18T22:47:40.123Z,12.00
2018-10-18T22:50:10.825Z,12.77
2018-10-18T22:52:41.494Z,13.07
2018-10-18T22:55:12.164Z,13.53
2018-10-18T22:57:42.816Z,13.70
2018-10-18T23:00:13.517Z,12.63
2018-10-18T23:02:44.178Z,10.53
2018-10-18T23:05:14.806Z,13.47
2018-10-18T23:07:45.482Z,10.37
2018-10-18T23:10:16.172Z,10.17
2018-10-18T23:12:46.810Z,11.97
2018-10-18T23:15:17.535Z,9.77
2018-10-18T23:17:48.071Z,11.23
2018-10-18T23:20:18.773Z,10.83
2018-10-18T23:22:49.404Z,10.10
2018-10-18T23:25:20.036Z,9.73
2018-10-18T23:27:50.736Z,10.70
2018-10-18T23:30:21.384Z,9.00
2018-10-18T23:32:52.097Z,13.77
2018-10-18T23:35:22.781Z,12.10
2018-10-18T23:37:53.423Z,10.20
2018-10-18T23:40:24.068Z,11.20
2018-10-18T23:42:54.746Z,11.30
2018-10-18T23:45:25.398Z,10.80
2018-10-18T23:47:56.045Z,10.77
2018-10-18T23:50:26.746Z,10.33
2018-10-18T23:52:57.394Z,10.70
2018-10-18T23:55:28.060Z,14.77
2018-10-18T23:57:58.742Z,12.37
